createdAt,value
2018-06-11T00:02:35.010Z,13.07
2018-06-11T00:07:27.947Z,12.50
2018-06-11T00:12:20.871Z,13.63
2018-06-11T00:17:13.673Z,13.07
2018-06-11T00:22:06.505Z,13.73
2018-06-11T00:26:59.331Z,13.47
2018-06-11T00:31:52.250Z,13.53
2018-06-11T00:36:45.067Z,13.50
2018-06-11T00:41:37.962Z,14.20
2018-06-11T00:46:30.905Z,14.57
2018-06-11T00:51:23.766Z,14.70
2018-06-11T00:56:16.611Z,14.30
2018-06-11T01:01:09.555Z,14.70
2018-06-11T01:06:02.481Z,13.60
2018-06-11T01:10:55.410Z,13.93
2018-06-11T01:15:48.357Z,14.17
2018-06-11T01:20:41.311Z,13.77
2018-06-11T01:25:34.227Z,13.83
2018-06-11T01:30:27.175Z,14.07
2018-06-11T01:35:20.116Z,14.17
2018-06-11T01:40:13.077Z,14.27
2018-06-11T01:45:05.975Z,14.63
2018-06-11T01:49:58.831Z,14.50
2018-06-11T01:54:51.709Z,14.50
2018-06-11T01:59:44.619Z,14.20
2018-06-11T02:04:37.493Z,14.80
2018-06-11T02:09:30.444Z,14.57
2018-06-11T02:14:23.297Z,14.93
2018-06-11T02:19:16.225Z,15.40
2018-06-11T02:24:09.080Z,14.83
2018-06-11T02:29:01.973Z,15.57
2018-06-11T02:33:54.805Z,16.20
2018-06-11T02:38:47.682Z,16.30
2018-06-11T02:43:40.610Z,15.93
2018-06-11T02:48:33.590Z,15.83
2018-06-11T02:53:26.497Z,15.57
2018-06-11T02:58:19.350Z,16.77
2018-06-11T03:03:12.329Z,16.33
2018-06-11T03:08:05.214Z,16.43
2018-06-11T03:12:58.292Z,16.67
2018-06-11T03:17:51.160Z,16.47
2018-06-11T03:22:44.057Z,15.87
2018-06-11T03:27:36.916Z,16.90
2018-06-11T03:32:29.732Z,17.13
2018-06-11T03:37:22.637Z,15.83
2018-06-11T03:42:15.522Z,15.37
2018-06-11T03:47:08.384Z,16.50
2018-06-11T03:52:01.314Z,16.47
2018-06-11T03:56:54.249Z,15.90
2018-06-11T04:01:47.165Z,17.20
2018-06-11T04:06:40.085Z,16.53
2018-06-11T04:11:33.025Z,16.77
2018-06-11T04:16:25.965Z,15.73
2018-06-11T04:21:18.882Z,16.47
2018-06-11T04:26:11.857Z,17.50
2018-06-11T04:31:04.698Z,17.33
2018-06-11T04:35:57.607Z,16.20
2018-06-11T04:40:50.659Z,16.23
2018-06-11T04:45:43.545Z,17.37
2018-06-11T04:50:36.517Z,17.13
2018-06-11T04:55:29.409Z,17.70
2018-06-11T05:00:22.301Z,16.83
2018-06-11T05:05:15.280Z,17.13
2018-06-11T05:10:08.278Z,17.87
2018-06-11T05:15:01.118Z,19.00
2018-06-11T05:19:54.107Z,17.93
2018-06-11T05:24:47.004Z,18.20
2018-06-11T05:29:39.905Z,22.53
2018-06-11T05:34:32.877Z,19.20
2018-06-11T05:39:25.805Z,18.70
2018-06-11T05:44:18.718Z,19.97
2018-06-11T05:49:11.628Z,20.40
2018-06-11T05:54:04.542Z,20.77
2018-06-11T05:58:57.466Z,19.63
2018-06-11T06:03:50.385Z,20.83
2018-06-11T06:08:43.292Z,21.03
2018-06-11T06:13:36.332Z,21.60
2018-06-11T06:18:29.230Z,21.07
2018-06-11T06:23:22.144Z,21.03
2018-06-11T06:28:15.301Z,21.50
2018-06-11T06:33:08.157Z,21.00
2018-06-11T06:38:01.042Z,20.87
2018-06-11T06:42:54.050Z,21.93
2018-06-11T06:47:46.933Z,22.17
2018-06-11T06:52:39.801Z,21.87
2018-06-11T06:57:32.808Z,20.87
2018-06-11T07:02:25.833Z,20.73
2018-06-11T07:07:18.740Z,20.73
2018-06-11T07:12:11.700Z,20.33
2018-06-11T07:17:04.641Z,20.33
2018-06-11T07:21:57.521Z,19.57
2018-06-11T07:26:50.592Z,20.07
2018-06-11T07:31:43.560Z,20.33
2018-06-11T07:36:36.432Z,18.53
2018-06-11T07:41:29.375Z,18.53
2018-06-11T07:46:22.326Z,16.43
2018-06-11T07:51:15.275Z,16.93
2018-06-11T07:56:08.164Z,14.03
2018-06-11T08:01:01.081Z,15.97
2018-06-11T08:05:54.037Z,15.50
2018-06-11T08:10:47.113Z,16.13
2018-06-11T08:15:40.011Z,16.33
2018-06-11T08:20:33.005Z,15.43
2018-06-11T08:25:26.029Z,16.57
2018-06-11T08:30:18.884Z,15.63
2018-06-11T08:35:11.969Z,15.53
2018-06-11T08:40:04.953Z,16.00
2018-06-11T08:44:58.032Z,15.50
2018-06-11T08:49:50.990Z,15.07
2018-06-11T08:54:43.987Z,14.87
2018-06-11T08:59:36.906Z,14.23
2018-06-11T09:04:29.802Z,14.00
2018-06-11T09:09:22.675Z,13.53
2018-06-11T09:14:15.574Z,12.97
2018-06-11T09:19:08.574Z,13.93
2018-06-11T09:24:01.518Z,12.97
2018-06-11T09:28:54.450Z,12.40
2018-06-11T09:33:47.407Z,11.17
2018-06-11T09:38:40.265Z,11.00
2018-06-11T09:43:33.217Z,9.70
2018-06-11T09:48:26.162Z,9.77
2018-06-11T09:53:19.029Z,8.60
2018-06-11T09:58:11.958Z,8.23
2018-06-11T10:03:05.268Z,8.47
2018-06-11T10:07:58.167Z,7.30
2018-06-11T10:12:51.015Z,6.47
2018-06-11T10:17:44.793Z,6.40
2018-06-11T10:22:37.777Z,6.20
2018-06-11T10:27:30.874Z,6.47
2018-06-11T10:32:23.855Z,6.17
2018-06-11T10:37:16.773Z,6.70
2018-06-11T10:42:09.674Z,6.13
2018-06-11T10:47:02.894Z,5.63
2018-06-11T10:51:55.768Z,5.13
2018-06-11T10:56:48.690Z,6.03
2018-06-11T11:01:41.563Z,5.40
2018-06-11T11:06:34.597Z,5.33
2018-06-11T11:11:27.471Z,5.00
2018-06-11T11:16:20.358Z,4.70
2018-06-11T11:21:13.302Z,4.50
2018-06-11T11:26:06.202Z,4.80
2018-06-11T11:30:59.090Z,3.97
2018-06-11T11:35:51.992Z,4.20
2018-06-11T11:40:45.079Z,4.23
2018-06-11T11:45:38.071Z,3.93
2018-06-11T11:50:30.907Z,3.53
2018-06-11T11:55:24.809Z,3.80
2018-06-11T12:00:17.822Z,3.67
2018-06-11T12:05:10.829Z,4.00
2018-06-11T12:10:03.834Z,3.70
2018-06-11T12:14:56.835Z,3.67
2018-06-11T12:19:49.797Z,3.87
2018-06-11T12:24:42.743Z,3.67
2018-06-11T12:29:35.615Z,3.30
2018-06-11T12:34:28.662Z,3.50
2018-06-11T12:39:21.839Z,3.37
2018-06-11T12:44:14.913Z,3.50
2018-06-11T12:49:07.924Z,3.90
2018-06-11T12:54:01.752Z,3.13
2018-06-11T12:58:54.744Z,3.27
2018-06-11T13:03:47.602Z,3.40
2018-06-11T13:08:41.095Z,3.87
2018-06-11T13:13:42.440Z,3.33
2018-06-11T13:18:35.294Z,3.10
2018-06-11T13:23:28.275Z,3.60
2018-06-11T13:28:21.155Z,3.20
2018-06-11T13:33:14.064Z,3.60
2018-06-11T13:38:06.933Z,3.53
2018-06-11T13:42:59.869Z,3.03
2018-06-11T13:47:52.860Z,3.63
2018-06-11T13:52:45.807Z,3.13
2018-06-11T13:57:38.779Z,3.37
2018-06-11T14:02:31.746Z,3.13
2018-06-11T14:07:24.695Z,3.87
2018-06-11T14:12:17.687Z,3.13
2018-06-11T14:17:10.555Z,3.30
2018-06-11T14:22:03.462Z,3.37
2018-06-11T14:26:56.328Z,3.23
2018-06-11T14:31:49.232Z,3.80
2018-06-11T14:36:42.756Z,3.77
2018-06-11T14:41:35.838Z,3.77
2018-06-11T14:46:28.777Z,3.60
2018-06-11T14:51:22.158Z,3.83
2018-06-11T14:56:15.033Z,3.63
2018-06-11T15:01:08.047Z,3.70
2018-06-11T15:06:01.266Z,3.80
2018-06-11T15:10:54.456Z,4.23
2018-06-11T15:15:47.523Z,3.87
2018-06-11T15:20:40.808Z,3.80
2018-06-11T15:25:33.963Z,3.97
2018-06-11T15:30:26.969Z,3.93
2018-06-11T15:35:20.141Z,4.20
2018-06-11T15:40:13.342Z,3.73
2018-06-11T15:45:06.253Z,3.83
2018-06-11T15:49:59.181Z,3.80
2018-06-11T15:54:52.193Z,3.73
2018-06-11T15:59:45.090Z,3.70
2018-06-11T16:04:38.117Z,4.17
2018-06-11T16:09:31.351Z,3.80
2018-06-11T16:14:24.307Z,3.53
2018-06-11T16:19:17.494Z,3.80
2018-06-11T16:24:10.438Z,3.80
2018-06-11T16:29:04.506Z,3.50
2018-06-11T16:34:11.240Z,3.87
2018-06-11T16:39:07.507Z,3.87
2018-06-11T16:44:00.345Z,4.03
2018-06-11T16:48:53.331Z,5.20
2018-06-11T16:53:46.329Z,4.27
2018-06-11T16:58:39.250Z,4.63
2018-06-11T17:03:32.678Z,5.60
2018-06-11T17:08:26.061Z,4.70
2018-06-11T17:13:18.992Z,7.20
2018-06-11T17:18:12.162Z,7.67
2018-06-11T17:23:05.111Z,4.20
2018-06-11T17:27:58.923Z,6.13
2018-06-11T17:32:51.859Z,8.43
2018-06-11T17:37:44.757Z,4.87
2018-06-11T17:42:37.838Z,6.47
2018-06-11T17:47:30.843Z,6.10
2018-06-11T17:52:23.753Z,4.47
2018-06-11T17:57:16.740Z,4.83
2018-06-11T18:02:09.573Z,4.73
2018-06-11T18:07:02.489Z,6.00
2018-06-11T18:11:55.628Z,5.23
2018-06-11T18:16:48.644Z,5.40
2018-06-11T18:21:41.717Z,6.43
2018-06-11T18:26:34.871Z,8.60
2018-06-11T18:31:27.769Z,5.20
2018-06-11T18:36:20.753Z,10.50
2018-06-11T18:41:13.741Z,4.63
2018-06-11T18:46:06.721Z,10.17
2018-06-11T18:55:16.323Z,8.27
2018-06-11T19:00:09.825Z,4.10
2018-06-11T19:05:03.133Z,4.00
2018-06-11T19:09:58.800Z,3.53
2018-06-11T19:14:57.198Z,3.43
2018-06-11T19:19:51.965Z,3.80
2018-06-11T19:24:45.251Z,3.80
2018-06-11T19:29:38.231Z,3.73
2018-06-11T19:34:31.229Z,3.77
2018-06-11T19:39:24.283Z,4.63
2018-06-11T19:44:17.250Z,5.03
2018-06-11T19:49:10.286Z,3.40
2018-06-11T19:54:03.383Z,3.27
2018-06-11T19:58:56.399Z,3.90
2018-06-11T20:03:49.796Z,3.60
2018-06-11T20:08:42.799Z,3.83
2018-06-11T20:13:35.927Z,3.80
2018-06-11T20:18:29.005Z,4.40
2018-06-11T20:23:21.911Z,3.73
2018-06-11T20:28:14.867Z,3.87
2018-06-11T20:33:07.861Z,3.80
2018-06-11T20:38:00.849Z,3.97
2018-06-11T20:42:53.799Z,3.90
2018-06-11T20:47:46.868Z,4.40
2018-06-11T20:52:39.681Z,4.47
2018-06-11T20:57:32.577Z,4.30
2018-06-11T21:02:25.530Z,4.20
2018-06-11T21:07:18.428Z,4.57
2018-06-11T21:12:11.329Z,4.70
2018-06-11T21:17:04.323Z,4.73
2018-06-11T21:21:57.313Z,4.30
2018-06-11T21:26:50.354Z,5.13
2018-06-11T21:31:43.321Z,5.47
2018-06-11T21:36:36.311Z,5.33
2018-06-11T21:41:29.466Z,6.10
2018-06-11T21:46:22.425Z,7.10
2018-06-11T21:51:15.425Z,6.30
2018-06-11T21:56:08.271Z,5.33
2018-06-11T22:01:01.241Z,5.27
2018-06-11T22:05:54.117Z,5.00
2018-06-11T22:10:47.079Z,5.03
2018-06-11T22:15:39.936Z,4.97
2018-06-11T22:20:32.851Z,5.73
2018-06-11T22:25:25.844Z,5.30
2018-06-11T22:30:18.673Z,5.63
2018-06-11T22:35:11.578Z,5.20
2018-06-11T22:40:04.568Z,5.53
2018-06-11T22:44:57.471Z,5.43
2018-06-11T22:49:50.325Z,5.37
2018-06-11T22:54:43.161Z,6.53
2018-06-11T22:59:36.022Z,7.33
2018-06-11T23:04:29.181Z,6.57
2018-06-11T23:09:22.032Z,6.43
2018-06-11T23:14:14.910Z,6.37
2018-06-11T23:19:07.806Z,6.03
2018-06-11T23:24:00.738Z,5.40
2018-06-11T23:28:53.621Z,6.07
2018-06-11T23:33:46.565Z,6.20
2018-06-11T23:38:39.408Z,5.67
2018-06-11T23:43:32.315Z,5.47
2018-06-11T23:48:25.202Z,5.77
2018-06-11T23:53:18.028Z,5.10
2018-06-11T23:58:10.970Z,5.70
